フォークランド諸島 の空港の天気 - METARとTAF

マウント・プレザント空軍基地 ( EGYP / MPN ) - フォークランド諸島 フォークランド諸島
飛行場実況気象(Metar)
観測時間12/10 01:50 FKST (12/10 04:50 UTC)
風向・風速西 4m/s
視程10km以上
天気現象
なし
気温12℃
湿度47%
気圧1003hPa
METAREGYP 100450Z 28007KT CAVOK 12/01 Q1003 BLU
過去の天気等 Google飛行場航空写真 Wunderground天気予報

過去48時間のMETAR

飛行場予報(TAF)
発表時間: 12/09 22:48 FKST (12/10 01:48 UTC)
予報対象時間: 10日0時 FKST ~ 10日18時 FKST
風向・風速北西 8m/s
視程10km以上
少しの雲 雲底高度 1370m
10日3時 FKST ~ 10日6時 FKST に徐々に
風向・風速北 8m/s 瞬間風速 13m/s
10日5時 FKST ~ 10日18時 FKST に一時的に
風向・風速北 13m/s 瞬間風速 20m/s
10日5時 FKST ~ 10日18時 FKST に 確率 30% で一時的に
風向・風速不定 4m/s
全天の4割程度の雲 雲底高度 210m
10日17時 FKST ~ 10日18時 FKST に徐々に
風向・風速西北西 10m/s 瞬間風速 18m/s
TAF EGYP 100148Z 1003/1021 32015KT 9999 FEW045
BECMG 1006/1009 36015G25KT 520003
TEMPO 1008/1021 35025G38KT 530003
PROB30 TEMPO 1008/1021 VRB07KT SCT007 560003
BECMG 1020/1021 30020G35KT 50////